Time;durP1;ratioP1;P1;durP2;ratioP2;P2;SDS_P1;SDS_P2;PMS_P1;PMS_P2;Temp;Humidity;BMP_temperature;BMP_pressure;BME280_temperature;BME280_humidity;BME280_pressure;Samples;Min_cycle;Max_cycle;Signal;HPM_P1;HPM_P2
2022/12/26 00:01:00;;;;;;;;;;;;;;;18.23;47.47;100614.31;5154057;27;19976;-58
2022/12/26 00:03:25;;;;;;;;;;;;;;;18.23;47.58;100622.59;5153626;27;20355;-58
2022/12/26 00:05:51;;;;;;;;;;;;;;;18.22;47.40;100618.16;5135200;27;19927;-58
2022/12/26 00:08:17;;;;;;;;;;;;;;;18.23;47.42;100617.06;5153507;27;19969;-58
2022/12/26 00:10:42;;;;;;;;;;;;;;;18.22;47.50;100621.78;5153791;27;20382;-58
2022/12/26 00:13:08;;;;;;;;;;;;;;;18.23;47.42;100622.59;5153740;27;19976;-58
2022/12/26 00:15:53;;;;;;;;;;;;;;;18.22;47.42;100623.66;5137762;27;19938;-58
2022/12/26 00:18:19;;;;;;;;;;;;;;;18.22;47.62;100624.53;5153640;27;19927;-58
2022/12/26 00:20:44;;;;;;;;;;;;;;;18.24;47.47;100624.22;5153177;27;19923;-58
2022/12/26 00:23:10;;;;;;;;;;;;;;;18.23;47.62;100626.16;5153313;27;20370;-58
2022/12/26 00:25:35;;;;;;;;;;;;;;;18.23;47.43;100625.34;5152864;27;19938;-58
2022/12/26 00:28:01;;;;;;;;;;;;;;;18.23;47.60;100634.44;5153467;27;19927;-58
2022/12/26 00:30:26;;;;;;;;;;;;;;;18.23;47.43;100626.16;5153384;27;19934;-58
2022/12/26 00:32:52;;;;;;;;;;;;;;;18.23;47.59;100634.44;5153325;27;19923;-58
2022/12/26 00:35:18;;;;;;;;;;;;;;;18.23;47.51;100628.09;5153418;27;19923;-58
2022/12/26 00:37:43;;;;;;;;;;;;;;;18.22;47.75;100618.16;5153386;27;20367;-58
2022/12/26 00:40:09;;;;;;;;;;;;;;;18.22;47.42;100610.75;5153148;27;19984;-58
2022/12/26 00:42:35;;;;;;;;;;;;;;;18.22;47.45;100619.00;5152788;27;20352;-59
2022/12/26 00:45:00;;;;;;;;;;;;;;;18.22;47.43;100621.78;5153048;27;19929;-59
2022/12/26 00:47:26;;;;;;;;;;;;;;;18.23;47.43;100617.06;5153060;27;19923;-58
2022/12/26 00:49:52;;;;;;;;;;;;;;;18.23;47.53;100619.84;5153048;27;20014;-58
2022/12/26 00:52:37;;;;;;;;;;;;;;;18.23;47.57;100631.69;5137498;27;20497;-59
2022/12/26 00:55:03;;;;;;;;;;;;;;;18.22;47.49;100649.34;5152843;27;19934;-58
2022/12/26 00:57:28;;;;;;;;;;;;;;;18.22;47.34;100660.34;5153276;27;19927;-58
2022/12/26 00:59:54;;;;;;;;;;;;;;;18.22;47.43;100668.63;5152190;27;20282;-58
2022/12/26 01:02:50;;;;;;;;;;;;;;;18.22;47.59;100670.53;5152465;27;19923;-59
2022/12/26 01:05:06;;;;;;;;;;;;;;;18.22;47.40;100663.13;5137430;27;19971;-59
2022/12/26 01:07:33;;;;;;;;;;;;;;;18.23;47.40;100683.22;5152942;27;20359;-58
2022/12/26 01:10:19;;;;;;;;;;;;;;;18.23;47.48;100680.47;5123441;27;19938;-58
2022/12/26 01:12:45;;;;;;;;;;;;;;;18.22;47.64;100676.03;5152907;27;19923;-58
2022/12/26 01:15:10;;;;;;;;;;;;;;;18.22;47.32;100671.38;5152751;27;20038;-58
2022/12/26 01:17:36;;;;;;;;;;;;;;;18.22;47.51;100689.81;5152030;27;19927;-58
2022/12/26 01:20:01;;;;;;;;;;;;;;;18.22;47.67;100687.06;5152663;27;19934;-58
2022/12/26 01:22:27;;;;;;;;;;;;;;;18.22;47.42;100674.13;5143286;27;19973;-58
2022/12/26 01:24:53;;;;;;;;;;;;;;;18.23;47.47;100680.47;5130965;27;19930;-58
2022/12/26 01:27:18;;;;;;;;;;;;;;;18.23;47.61;100677.72;5131748;27;19931;-58
2022/12/26 01:29:44;;;;;;;;;;;;;;;18.23;47.48;100680.47;5150367;27;19923;-58
2022/12/26 01:32:10;;;;;;;;;;;;;;;18.23;47.50;100697.00;5144619;27;19927;-58
2022/12/26 01:34:35;;;;;;;;;;;;;;;18.23;47.43;100708.03;5131256;27;19935;-58
2022/12/26 01:37:01;;;;;;;;;;;;;;;18.23;47.40;100691.50;5131698;28;20283;-58
2022/12/26 01:39:26;;;;;;;;;;;;;;;18.22;47.34;100692.56;5160095;27;19927;-58
2022/12/26 01:41:52;;;;;;;;;;;;;;;18.21;47.53;100700.03;5165211;27;19927;-58
2022/12/26 01:44:37;;;;;;;;;;;;;;;18.23;47.47;100694.25;5131490;27;19924;-58
2022/12/26 01:47:03;;;;;;;;;;;;;;;18.22;47.58;100696.19;5116112;28;19969;-58
2022/12/26 01:49:31;;;;;;;;;;;;;;;18.22;47.60;100689.81;5131496;28;19927;-58
2022/12/26 01:51:58;;;;;;;;;;;;;;;18.23;47.61;100699.75;5131432;27;19924;-58
2022/12/26 01:54:24;;;;;;;;;;;;;;;18.22;47.49;100698.09;5130971;27;19924;-58
2022/12/26 01:57:09;;;;;;;;;;;;;;;18.22;47.39;100693.44;5131352;28;19950;-58
2022/12/26 01:59:35;;;;;;;;;;;;;;;18.22;47.57;100698.09;5148694;27;20332;-58
2022/12/26 02:02:00;;;;;;;;;;;;;;;18.22;47.59;100679.66;5145918;27;20014;-58
2022/12/26 02:07:13;;;;;;;;;;;;;;;18.22;47.41;100692.56;5116024;28;20266;-59
2022/12/26 02:09:38;;;;;;;;;;;;;;;18.22;47.44;100701.69;5131241;28;19927;-58
2022/12/26 02:12:08;;;;;;;;;;;;;;;18.21;47.54;100700.03;5131165;27;19924;-58
2022/12/26 02:14:54;;;;;;;;;;;;;;;18.22;47.42;100711.88;5114867;28;19927;-58
2022/12/26 02:17:20;;;;;;;;;;;;;;;18.23;47.57;100716.31;5112957;28;19927;-58
2022/12/26 02:22:27;;;;;;;;;;;;;;;18.21;47.68;100702.78;5189986;27;19925;-56
2022/12/26 02:25:01;;;;;;;;;;;;;;;18.22;47.58;100698.09;5189161;27;20397;-56
2022/12/26 02:27:34;;;;;;;;;;;;;;;18.22;47.18;100700.84;5171553;27;19923;-56
2022/12/26 02:30:20;;;;;;;;;;;;;;;18.22;47.48;100718.25;5147292;27;19962;-56
2022/12/26 02:32:59;;;;;;;;;;;;;;;18.21;47.63;100712.97;5155900;27;19968;-56
2022/12/26 02:38:12;;;;;;;;;;;;;;;18.22;47.51;100717.38;5192060;27;19941;-56
2022/12/26 02:40:45;;;;;;;;;;;;;;;18.22;47.19;100743.03;5210996;27;19922;-56
2022/12/26 02:43:15;;;;;;;;;;;;;;;18.22;47.40;100729.25;5180901;27;20355;-56
2022/12/26 02:48:40;;;;;;;;;;;;;;;18.22;47.65;100721.00;5138289;27;20390;-56
2022/12/26 03:13:48;;;;;;;;;;;;;;;18.22;47.51;100743.03;5152484;27;20291;-56
2022/12/26 03:19:00;;;;;;;;;;;;;;;18.22;47.50;100726.50;5138324;27;20009;-56
2022/12/26 03:21:27;;;;;;;;;;;;;;;18.21;47.50;100724.84;5167705;27;19927;-56
2022/12/26 03:23:52;;;;;;;;;;;;;;;18.22;47.66;100731.16;5149111;27;19955;-56
2022/12/26 03:26:51;;;;;;;;;;;;;;;18.21;47.44;100727.59;5168017;27;19946;-56
2022/12/26 03:31:52;;;;;;;;;;;;;;;18.23;47.60;100743.88;5138023;27;19967;-56
2022/12/26 03:34:18;;;;;;;;;;;;;;;18.22;47.58;100755.97;5149423;27;19934;-56
2022/12/26 03:37:03;;;;;;;;;;;;;;;18.21;47.37;100751.56;5168099;27;19923;-56
2022/12/26 04:19:30;;;;;;;;;;;;;;;18.21;47.56;100760.66;5153080;27;19923;-56
2022/12/26 04:44:21;;;;;;;;;;;;;;;18.21;47.73;100771.69;5152975;27;20359;-56
2022/12/26 04:46:47;;;;;;;;;;;;;;;18.22;47.54;100775.28;5168394;27;19923;-56
2022/12/26 04:52:00;;;;;;;;;;;;;;;18.22;47.67;100769.75;5152774;27;19927;-56
2022/12/26 04:54:25;;;;;;;;;;;;;;;18.22;47.43;100772.50;5168144;27;19981;-56
2022/12/26 04:56:51;;;;;;;;;;;;;;;18.22;47.57;100767.00;5149993;27;19923;-56
2022/12/26 04:59:17;;;;;;;;;;;;;;;18.22;47.59;100778.88;5168152;27;20423;-55
2022/12/26 05:10:08;;;;;;;;;;;;;;;18.23;47.49;100774.19;5131865;27;19931;-56
2022/12/26 05:12:34;;;;;;;;;;;;;;;18.22;47.42;100775.28;5147478;27;19923;-56
2022/12/26 05:14:59;;;;;;;;;;;;;;;18.22;47.44;100773.38;5145632;27;20371;-55
2022/12/26 05:28:43;;;;;;;;;;;;;;;18.21;47.59;100777.19;5113131;28;19928;-56
2022/12/26 05:31:10;;;;;;;;;;;;;;;18.21;47.55;100788.22;5126393;28;19928;-56
2022/12/26 05:34:09;;;;;;;;;;;;;;;18.22;47.59;100792.66;5144154;27;19958;-56
2022/12/26 05:36:22;;;;;;;;;;;;;;;18.22;47.45;100789.06;5131454;27;19946;-56
2022/12/26 05:38:47;;;;;;;;;;;;;;;18.22;47.42;100800.06;5143083;27;19923;-56
2022/12/26 05:41:13;;;;;;;;;;;;;;;18.21;47.43;100782.72;5153979;27;20286;-56
2022/12/26 05:43:39;;;;;;;;;;;;;;;18.21;47.55;100793.75;5134439;27;19923;-56
2022/12/26 05:46:04;;;;;;;;;;;;;;;18.22;47.54;100787.16;5133075;28;19951;-56
2022/12/26 05:48:30;;;;;;;;;;;;;;;18.22;47.48;100789.06;5132943;28;20336;-56
2022/12/26 05:50:58;;;;;;;;;;;;;;;18.22;47.43;100791.81;5133295;28;19923;-56
2022/12/26 05:53:23;;;;;;;;;;;;;;;18.21;47.49;100777.19;5132295;28;19965;-55
2022/12/26 05:55:49;;;;;;;;;;;;;;;18.22;47.68;100780.78;5132747;28;19931;-56
2022/12/26 05:58:14;;;;;;;;;;;;;;;18.22;47.66;100781.63;5132760;28;19930;-56
2022/12/26 06:00:40;;;;;;;;;;;;;;;18.22;47.45;100789.06;5132472;28;19923;-56
2022/12/26 06:03:05;;;;;;;;;;;;;;;18.22;47.60;100786.28;5132445;28;19924;-56
2022/12/26 06:05:31;;;;;;;;;;;;;;;18.22;47.61;100786.28;5132606;28;19923;-56
2022/12/26 06:07:57;;;;;;;;;;;;;;;18.21;47.64;100779.97;5132710;28;19928;-56
2022/12/26 06:10:25;;;;;;;;;;;;;;;18.20;47.60;100769.22;5132805;28;19932;-56
2022/12/26 06:12:50;;;;;;;;;;;;;;;18.22;47.71;100778.03;5132529;28;19959;-56
2022/12/26 06:15:16;;;;;;;;;;;;;;;18.21;47.59;100774.44;5132603;28;19924;-56
2022/12/26 06:17:41;;;;;;;;;;;;;;;18.21;47.42;100791.00;5133021;28;20066;-56
2022/12/26 06:20:07;;;;;;;;;;;;;;;18.21;47.59;100791.00;5132697;28;20306;-56
2022/12/26 06:22:32;;;;;;;;;;;;;;;18.23;47.69;100799.00;5132636;28;20027;-56
2022/12/26 06:24:58;;;;;;;;;;;;;;;18.22;47.69;100802.84;5131067;28;19934;-56
2022/12/26 06:27:24;;;;;;;;;;;;;;;18.22;47.61;100798.19;5131349;27;19935;-56
2022/12/26 06:29:49;;;;;;;;;;;;;;;18.22;47.66;100794.56;5131790;28;19923;-56
2022/12/26 06:32:15;;;;;;;;;;;;;;;18.21;47.58;100795.69;5125963;28;19924;-56
2022/12/26 06:34:40;;;;;;;;;;;;;;;18.22;47.59;100791.81;5132169;28;19924;-56
2022/12/26 06:37:06;;;;;;;;;;;;;;;18.22;47.58;100784.41;5132362;28;19946;-56
2022/12/26 06:39:31;;;;;;;;;;;;;;;18.21;47.67;100787.41;5146982;27;19923;-56
2022/12/26 06:41:57;;;;;;;;;;;;;;;18.21;47.60;100793.75;5149517;27;20252;-56
2022/12/26 06:44:23;;;;;;;;;;;;;;;18.21;47.60;100791.00;5132080;28;19927;-56
2022/12/26 06:46:48;;;;;;;;;;;;;;;18.21;47.82;100791.00;5132263;28;20279;-56
2022/12/26 06:49:14;;;;;;;;;;;;;;;18.21;47.64;100788.22;5131212;27;19980;-56
2022/12/26 06:51:39;;;;;;;;;;;;;;;18.22;47.72;100795.41;5132161;28;19931;-56
2022/12/26 06:54:05;;;;;;;;;;;;;;;18.22;47.44;100792.66;5130107;28;20286;-53
2022/12/26 06:56:31;;;;;;;;;;;;;;;18.22;47.45;100794.56;5131976;28;19930;-56
2022/12/26 06:58:58;;;;;;;;;;;;;;;18.21;47.50;100804.75;5130894;28;20206;-56
2022/12/26 07:01:24;;;;;;;;;;;;;;;18.21;47.45;100807.53;5131797;28;19934;-56
2022/12/26 07:03:51;;;;;;;;;;;;;;;18.22;47.55;100803.69;5131487;28;19955;-56
2022/12/26 07:06:21;;;;;;;;;;;;;;;18.20;47.67;100814.16;5130415;28;20398;-56
2022/12/26 07:08:47;;;;;;;;;;;;;;;18.22;47.60;100816.63;5131864;28;19924;-56
2022/12/26 07:11:14;;;;;;;;;;;;;;;18.22;47.43;100825.75;5131885;28;19975;-56
2022/12/26 07:13:41;;;;;;;;;;;;;;;18.21;47.70;100820.47;5130022;28;19927;-56
2022/12/26 07:16:06;;;;;;;;;;;;;;;18.21;47.58;100826.81;5130199;28;20275;-56
2022/12/26 07:18:32;;;;;;;;;;;;;;;18.21;47.71;100826.81;5131873;28;19934;-56
2022/12/26 07:20:57;;;;;;;;;;;;;;;18.22;47.59;100839.53;5131923;28;19929;-56
2022/12/26 07:23:23;;;;;;;;;;;;;;;18.21;47.69;100843.34;5130992;28;19996;-56
2022/12/26 07:25:49;;;;;;;;;;;;;;;18.22;47.53;100860.72;5130726;28;19928;-56
2022/12/26 07:28:14;;;;;;;;;;;;;;;18.22;47.54;100841.44;5130953;27;20356;-56
2022/12/26 07:30:45;;;;;;;;;;;;;;;18.22;47.51;100839.53;5130327;28;19924;-56
2022/12/26 07:33:10;;;;;;;;;;;;;;;18.22;47.61;100847.78;5130701;28;20003;-56
2022/12/26 07:35:36;;;;;;;;;;;;;;;18.23;47.58;100865.16;5131288;28;20336;-56
2022/12/26 07:38:01;;;;;;;;;;;;;;;18.22;47.65;100869.84;5131246;28;19923;-56
2022/12/26 07:40:28;;;;;;;;;;;;;;;18.21;47.70;100876.44;5131549;28;19976;-56
2022/12/26 07:42:53;;;;;;;;;;;;;;;18.21;47.70;100876.44;5130991;28;20018;-56
2022/12/26 07:45:19;;;;;;;;;;;;;;;18.22;47.73;100874.50;5131077;28;19924;-56
2022/12/26 07:47:44;;;;;;;;;;;;;;;18.22;47.84;100878.13;5130683;28;20278;-56
2022/12/26 07:50:10;;;;;;;;;;;;;;;18.22;47.66;100880.88;5131196;28;19937;-56
2022/12/26 07:52:36;;;;;;;;;;;;;;;18.22;47.64;100880.00;5130510;28;19923;-56
2022/12/26 07:55:03;;;;;;;;;;;;;;;18.21;47.59;100870.94;5130524;28;20295;-56
2022/12/26 07:57:29;;;;;;;;;;;;;;;18.22;47.69;100880.00;5130917;28;19950;-56
2022/12/26 08:00:14;;;;;;;;;;;;;;;18.21;47.51;100876.44;5130491;27;20360;-55
2022/12/26 08:02:39;;;;;;;;;;;;;;;18.22;47.58;100880.88;5130488;28;19931;-56
2022/12/26 08:05:05;;;;;;;;;;;;;;;18.22;47.67;100878.13;5130670;28;19930;-56
2022/12/26 08:07:31;;;;;;;;;;;;;;;18.21;47.71;100881.94;5130988;28;20345;-56
2022/12/26 08:09:56;;;;;;;;;;;;;;;18.22;47.58;100880.00;5130669;28;19923;-56
2022/12/26 08:12:23;;;;;;;;;;;;;;;18.22;47.59;100869.84;5130488;28;20403;-56
2022/12/26 08:14:49;;;;;;;;;;;;;;;18.21;47.69;100857.13;5130495;28;19924;-56
2022/12/26 08:17:14;;;;;;;;;;;;;;;18.22;47.59;100867.09;5130974;28;20287;-56
2022/12/26 08:19:40;;;;;;;;;;;;;;;18.22;47.83;100880.00;5130544;28;19924;-56
2022/12/26 08:22:06;;;;;;;;;;;;;;;18.23;47.75;100884.44;5130524;28;19992;-56
2022/12/26 08:24:31;;;;;;;;;;;;;;;18.21;47.70;100884.69;5129882;28;19923;-56
2022/12/26 08:26:57;;;;;;;;;;;;;;;18.22;47.85;100880.88;5120133;28;19924;-56
2022/12/26 08:29:22;;;;;;;;;;;;;;;18.21;47.86;100890.22;5106985;28;19931;-56
2022/12/26 08:31:48;;;;;;;;;;;;;;;18.22;47.69;100885.53;5129956;28;19927;-56
2022/12/26 08:34:14;;;;;;;;;;;;;;;18.22;47.69;100893.81;5129765;28;20391;-56
2022/12/26 08:36:39;;;;;;;;;;;;;;;18.21;47.79;100895.72;5130080;28;20019;-56
2022/12/26 08:39:05;;;;;;;;;;;;;;;18.22;47.61;100910.34;5130192;28;19929;-56
2022/12/26 08:41:30;;;;;;;;;;;;;;;18.22;47.71;100905.69;5130198;28;20394;-56
2022/12/26 08:43:56;;;;;;;;;;;;;;;18.22;47.80;100910.34;5130074;28;19976;-56
2022/12/26 08:46:41;;;;;;;;;;;;;;;18.22;47.60;100910.34;5115081;28;19923;-56
2022/12/26 08:49:07;;;;;;;;;;;;;;;18.22;47.87;100911.19;5128966;28;20040;-56
2022/12/26 08:51:32;;;;;;;;;;;;;;;18.22;47.68;100908.44;5130262;28;20264;-56
2022/12/26 08:53:58;;;;;;;;;;;;;;;18.22;47.75;100919.47;5129530;28;19931;-56
2022/12/26 08:56:24;;;;;;;;;;;;;;;18.22;47.66;100915.84;5130196;28;20398;-56
2022/12/26 08:58:50;;;;;;;;;;;;;;;18.22;47.75;100918.59;5129629;28;19927;-56
2022/12/26 09:01:17;;;;;;;;;;;;;;;18.21;47.64;100923.28;5130305;28;19924;-56
2022/12/26 09:03:43;;;;;;;;;;;;;;;18.22;47.69;100922.22;5111270;28;19988;-56
2022/12/26 09:06:09;;;;;;;;;;;;;;;18.22;47.74;100919.47;5130333;28;20439;-56
2022/12/26 09:08:35;;;;;;;;;;;;;;;18.22;47.74;100919.47;5128588;28;19968;-56
2022/12/26 09:11:02;;;;;;;;;;;;;;;18.22;47.67;100919.47;5129840;28;19923;-56
2022/12/26 09:13:28;;;;;;;;;;;;;;;18.22;47.63;100921.38;5129975;27;19931;-56
2022/12/26 09:15:53;;;;;;;;;;;;;;;18.22;48.08;100932.38;5133392;28;19928;-53
2022/12/26 09:18:19;;;;;;;;;;;;;;;18.22;47.75;100922.22;5133585;28;19928;-56
2022/12/26 09:20:44;;;;;;;;;;;;;;;18.22;47.88;100927.72;5133501;28;19976;-56
2022/12/26 09:23:10;;;;;;;;;;;;;;;18.22;47.67;100924.97;5132809;28;19931;-56
2022/12/26 09:25:35;;;;;;;;;;;;;;;18.22;47.68;100930.50;5133026;28;20291;-56
2022/12/26 09:28:01;;;;;;;;;;;;;;;18.22;47.74;100927.72;5147944;27;19930;-56
2022/12/26 09:30:26;;;;;;;;;;;;;;;18.22;47.69;100940.66;5133319;28;19939;-56
2022/12/26 09:32:52;;;;;;;;;;;;;;;18.22;47.80;100941.50;5132702;28;19939;-56
2022/12/26 09:35:18;;;;;;;;;;;;;;;18.23;47.63;100953.38;5133007;28;20279;-56
2022/12/26 09:37:44;;;;;;;;;;;;;;;18.22;47.68;100948.94;5131879;28;19959;-56
2022/12/26 09:40:25;;;;;;;;;;;;;;;18.22;47.65;100955.28;5133219;28;19927;-56
2022/12/26 09:43:00;;;;;;;;;;;;;;;18.22;47.78;100969.09;5132612;28;20343;-55
2022/12/26 09:45:34;;;;;;;;;;;;;;;18.22;47.85;100969.09;5132850;28;19936;-56
2022/12/26 09:48:18;;;;;;;;;;;;;;;18.22;47.86;100982.88;5131837;28;19923;-56
2022/12/26 09:50:43;;;;;;;;;;;;;;;18.23;47.80;100981.75;5133037;28;19934;-56
2022/12/26 09:53:13;;;;;;;;;;;;;;;18.22;47.74;100982.88;5132633;28;19924;-56
2022/12/26 09:55:41;;;;;;;;;;;;;;;18.22;47.93;100973.75;5131327;28;19955;-56
2022/12/26 09:58:27;;;;;;;;;;;;;;;18.22;47.93;100976.50;5130873;28;19977;-56
2022/12/26 10:00:57;;;;;;;;;;;;;;;18.22;47.76;100988.38;5117313;28;19931;-56
2022/12/26 10:03:23;;;;;;;;;;;;;;;18.23;47.71;100981.75;5114209;28;19974;-56
2022/12/26 10:06:06;;;;;;;;;;;;;;;18.22;47.70;100982.88;5132550;28;19923;-56
2022/12/26 10:08:42;;;;;;;;;;;;;;;18.23;47.95;100979.00;5132625;28;19970;-56
2022/12/26 10:11:10;;;;;;;;;;;;;;;18.22;47.80;100980.09;5132973;28;20318;-56
2022/12/26 10:13:38;;;;;;;;;;;;;;;18.24;47.85;100966.03;5132264;28;19947;-56
2022/12/26 10:16:08;;;;;;;;;;;;;;;18.23;47.70;100958.88;5132331;28;19927;-56
2022/12/26 10:18:54;;;;;;;;;;;;;;;18.23;47.75;100969.91;5132801;28;20437;-56
2022/12/26 10:24:26;;;;;;;;;;;;;;;18.22;47.78;100960.81;5185866;27;20293;-56
2022/12/26 10:26:54;;;;;;;;;;;;;;;18.23;47.70;100961.63;5187623;27;19922;-55
2022/12/26 10:29:29;;;;;;;;;;;;;;;18.23;47.84;100965.22;5175919;27;20405;-56
2022/12/26 10:31:57;;;;;;;;;;;;;;;18.23;47.94;100958.88;5186426;27;19934;-56
2022/12/26 10:34:27;;;;;;;;;;;;;;;18.22;48.02;100963.56;5170223;27;19930;-56
2022/12/26 10:36:54;;;;;;;;;;;;;;;18.23;47.93;100956.94;5189889;27;20370;-56
2022/12/26 10:39:27;;;;;;;;;;;;;;;18.23;47.77;100958.88;5188520;27;20125;-56
2022/12/26 10:41:54;;;;;;;;;;;;;;;18.22;47.88;100951.69;5186775;27;19988;-56
2022/12/26 10:44:20;;;;;;;;;;;;;;;18.22;47.95;100955.28;5168436;27;20382;-56
2022/12/26 10:47:12;;;;;;;;;;;;;;;18.23;47.79;100959.69;5168763;27;19939;-56
2022/12/26 10:49:38;;;;;;;;;;;;;;;18.23;47.89;100961.63;5153121;27;19958;-56
2022/12/26 10:52:04;;;;;;;;;;;;;;;18.24;47.93;100960.53;5167961;27;19927;-56
2022/12/26 10:54:29;;;;;;;;;;;;;;;18.23;47.85;100964.38;5167850;27;20282;-56
2022/12/26 10:56:56;;;;;;;;;;;;;;;18.23;47.85;100967.16;5149877;27;19927;-56
2022/12/26 10:59:25;;;;;;;;;;;;;;;18.23;47.84;100967.16;5165094;27;20323;-56
2022/12/26 11:01:51;;;;;;;;;;;;;;;18.24;47.83;100974.31;5167113;27;19930;-56
2022/12/26 11:04:21;;;;;;;;;;;;;;;18.23;47.84;100969.91;5148142;27;19923;-56
2022/12/26 11:07:07;;;;;;;;;;;;;;;18.23;48.02;100975.41;5117992;27;20271;-56
2022/12/26 11:09:36;;;;;;;;;;;;;;;18.23;47.88;100972.66;5147467;27;19970;-56
2022/12/26 11:12:02;;;;;;;;;;;;;;;18.23;47.82;100956.94;5147397;27;19949;-56
2022/12/26 11:17:06;;;;;;;;;;;;;;;18.23;47.77;100958.88;5190358;27;19925;-56
2022/12/26 11:19:33;;;;;;;;;;;;;;;18.23;47.93;100964.38;5189783;27;20366;-56
2022/12/26 11:22:18;;;;;;;;;;;;;;;18.23;47.79;100956.94;5170998;27;19929;-56
2022/12/26 11:24:44;;;;;;;;;;;;;;;18.23;48.00;100956.13;5154823;27;19923;-56
2022/12/26 11:27:17;;;;;;;;;;;;;;;18.24;47.86;100971.56;5168854;27;19971;-56
2022/12/26 11:29:43;;;;;;;;;;;;;;;18.23;48.03;100964.38;5168629;27;20386;-56
2022/12/26 11:32:13;;;;;;;;;;;;;;;18.24;48.03;100966.03;5189701;27;19922;-56
2022/12/26 11:34:44;;;;;;;;;;;;;;;18.23;47.95;100965.22;5189307;27;19984;-56
2022/12/26 11:37:26;;;;;;;;;;;;;;;18.23;47.71;100967.16;5170340;27;19972;-56
2022/12/26 11:39:52;;;;;;;;;;;;;;;18.23;47.86;100973.47;5189544;27;20367;-56
2022/12/26 11:42:19;;;;;;;;;;;;;;;18.22;48.02;100969.09;5189555;27;19922;-56
2022/12/26 11:44:44;;;;;;;;;;;;;;;18.23;48.00;100969.91;5170419;27;19942;-56
2022/12/26 11:47:11;;;;;;;;;;;;;;;18.23;47.79;100969.91;5189555;27;19922;-56
2022/12/26 11:49:38;;;;;;;;;;;;;;;18.23;47.91;100983.69;5170184;27;20396;-56
2022/12/26 11:52:24;;;;;;;;;;;;;;;18.23;47.85;100987.25;5189312;27;19963;-56
2022/12/26 11:54:49;;;;;;;;;;;;;;;18.23;47.86;100990.03;5173033;27;19926;-56
2022/12/26 11:57:18;;;;;;;;;;;;;;;18.23;48.02;100983.69;5170145;27;19957;-56
2022/12/26 11:59:43;;;;;;;;;;;;;;;18.24;47.86;100988.09;5188526;27;20122;-56
2022/12/26 12:02:18;;;;;;;;;;;;;;;18.23;47.87;100979.00;5168493;27;19923;-55
2022/12/26 12:04:44;;;;;;;;;;;;;;;18.24;47.87;100982.56;5167659;27;19935;-56
2022/12/26 12:07:19;;;;;;;;;;;;;;;18.23;47.91;100970.72;5167897;27;20008;-56
2022/12/26 12:10:04;;;;;;;;;;;;;;;18.24;48.13;100977.06;5149144;27;19927;-56
2022/12/26 12:12:32;;;;;;;;;;;;;;;18.23;47.91;100979.00;5152422;27;19923;-56
2022/12/26 12:15:02;;;;;;;;;;;;;;;18.23;47.88;100979.00;5167724;27;19981;-56
2022/12/26 12:17:38;;;;;;;;;;;;;;;18.24;47.88;100993.59;5167668;27;20367;-56
2022/12/26 12:20:09;;;;;;;;;;;;;;;18.23;47.98;100990.03;5168186;27;19923;-56
2022/12/26 12:22:54;;;;;;;;;;;;;;;18.23;47.98;100994.72;5167822;27;19927;-56
2022/12/26 12:25:30;;;;;;;;;;;;;;;18.23;47.84;100992.78;5165068;27;20331;-56
2022/12/26 12:28:16;;;;;;;;;;;;;;;18.24;48.12;101002.69;5174042;27;19930;-56
2022/12/26 12:30:44;;;;;;;;;;;;;;;18.23;47.94;100998.28;5137906;27;19923;-56
2022/12/26 12:33:29;;;;;;;;;;;;;;;18.24;47.95;101010.16;5121220;28;19928;-56
2022/12/26 12:35:58;;;;;;;;;;;;;;;18.23;47.91;101001.06;5117586;28;19973;-56
2022/12/26 12:41:26;;;;;;;;;;;;;;;18.24;47.91;101005.47;5190115;27;20301;-56
2022/12/26 12:43:56;;;;;;;;;;;;;;;18.23;48.00;101002.97;5173760;27;20275;-56
2022/12/26 12:46:41;;;;;;;;;;;;;;;18.23;47.79;100992.78;5189204;27;20275;-56
2022/12/26 12:49:12;;;;;;;;;;;;;;;18.24;47.80;100990.84;5174011;27;20278;-56
2022/12/26 12:51:43;;;;;;;;;;;;;;;18.24;47.82;100994.44;5189782;27;19930;-56
2022/12/26 12:54:17;;;;;;;;;;;;;;;18.24;47.78;100993.59;5189396;27;19994;-56
2022/12/26 12:59:48;;;;;;;;;;;;;;;18.24;48.01;100999.94;5189408;27;19925;-56
2022/12/26 13:02:24;;;;;;;;;;;;;;;18.24;47.79;101013.72;5162062;27;19959;-56
2022/12/26 13:04:52;;;;;;;;;;;;;;;18.24;47.96;101018.41;5147897;27;19927;-56
2022/12/26 13:07:20;;;;;;;;;;;;;;;18.24;47.93;101033.03;5148110;27;20364;-56
2022/12/26 13:09:48;;;;;;;;;;;;;;;18.23;47.96;101025.84;5147981;27;20226;-56
2022/12/26 13:12:17;;;;;;;;;;;;;;;18.24;47.80;101034.97;5147953;27;19927;-56
2022/12/26 13:14:44;;;;;;;;;;;;;;;18.23;47.95;101045.16;5128933;27;19927;-56
2022/12/26 13:17:12;;;;;;;;;;;;;;;18.23;47.88;101039.66;5147998;27;19996;-56
2022/12/26 13:19:39;;;;;;;;;;;;;;;18.24;47.80;101048.75;5147977;27;19939;-56
2022/12/26 13:22:09;;;;;;;;;;;;;;;18.24;47.91;101049.56;5147721;27;19969;-56
2022/12/26 13:24:35;;;;;;;;;;;;;;;18.24;47.97;101044.06;5153413;27;20138;-56
2022/12/26 13:29:38;;;;;;;;;;;;;;;18.23;47.94;101041.56;5189710;27;19925;-56
2022/12/26 13:32:04;;;;;;;;;;;;;;;18.24;47.79;101055.06;5167135;27;19973;-56
2022/12/26 13:34:30;;;;;;;;;;;;;;;18.25;47.77;101058.66;5167863;27;19948;-56
2022/12/26 13:36:56;;;;;;;;;;;;;;;18.24;47.80;101057.00;5168806;27;20125;-56
2022/12/26 13:44:48;;;;;;;;;;;;;;;18.23;47.76;101045.16;5189569;27;20389;-56
2022/12/26 13:47:29;;;;;;;;;;;;;;;18.24;47.65;101054.25;5171777;27;19971;-56
2022/12/26 13:49:54;;;;;;;;;;;;;;;18.22;47.83;101062.81;5171226;27;20172;-56
2022/12/26 13:52:24;;;;;;;;;;;;;;;18.24;47.73;101059.75;5189971;27;19923;-56
2022/12/26 13:57:41;;;;;;;;;;;;;;;18.24;47.88;101070.78;5190012;27;20247;-56
2022/12/26 14:00:08;;;;;;;;;;;;;;;18.25;47.85;101077.97;5168591;27;19930;-55
2022/12/26 14:02:45;;;;;;;;;;;;;;;18.23;47.71;101072.72;5172525;27;19923;-56
2022/12/26 14:05:50;;;;;;;;;;;;;;;18.23;47.76;101075.47;5138915;27;19923;-56
2022/12/26 14:08:36;;;;;;;;;;;;;;;18.23;47.80;101085.69;5152775;27;19934;-56
2022/12/26 14:11:21;;;;;;;;;;;;;;;18.24;47.96;101088.16;5153020;27;19923;-55
2022/12/26 14:13:56;;;;;;;;;;;;;;;18.24;47.78;101088.16;5152967;27;20370;-56
2022/12/26 14:16:26;;;;;;;;;;;;;;;18.23;47.71;101086.50;5168704;27;19923;-56
2022/12/26 14:19:11;;;;;;;;;;;;;;;18.24;47.86;101090.09;5168841;27;19930;-56
2022/12/26 14:21:39;;;;;;;;;;;;;;;18.24;47.87;101112.16;5151762;27;20016;-56
2022/12/26 14:24:09;;;;;;;;;;;;;;;18.24;47.78;101114.91;5147427;27;19924;-56
2022/12/26 14:26:39;;;;;;;;;;;;;;;18.24;47.95;101112.16;5147920;27;19923;-56
2022/12/26 14:29:10;;;;;;;;;;;;;;;18.23;47.77;101127.84;5160850;27;19923;-55
2022/12/26 14:31:38;;;;;;;;;;;;;;;18.24;47.87;101136.94;5167799;27;19923;-56
2022/12/26 14:34:11;;;;;;;;;;;;;;;18.24;47.71;101140.53;5147411;27;19934;-56
2022/12/26 14:36:43;;;;;;;;;;;;;;;18.25;47.76;101144.13;5147521;27;19930;-56
2022/12/26 14:39:14;;;;;;;;;;;;;;;18.24;47.92;101156.25;5147329;27;20366;-56
2022/12/26 14:44:45;;;;;;;;;;;;;;;18.24;47.71;101157.06;5148734;27;19927;-56
2022/12/26 14:47:11;;;;;;;;;;;;;;;18.24;47.78;101157.06;5147349;27;19935;-56
2022/12/26 14:49:38;;;;;;;;;;;;;;;18.24;47.78;101162.59;5147396;27;20278;-56
2022/12/26 14:52:23;;;;;;;;;;;;;;;18.24;47.75;101164.53;5128697;27;19924;-56
2022/12/26 14:54:49;;;;;;;;;;;;;;;18.24;47.76;101164.53;5131318;27;20032;-56
2022/12/26 14:57:36;;;;;;;;;;;;;;;18.23;47.78;101166.44;5147280;27;20014;-56
2022/12/26 15:00:11;;;;;;;;;;;;;;;18.24;47.78;101168.09;5145719;27;20063;-56
2022/12/26 15:02:37;;;;;;;;;;;;;;;18.24;47.86;101167.28;5137378;27;19923;-56
2022/12/26 15:05:07;;;;;;;;;;;;;;;18.25;47.88;101172.50;5167649;27;19945;-55
2022/12/26 15:07:42;;;;;;;;;;;;;;;18.24;47.77;101172.78;5161230;27;19923;-56
2022/12/26 15:10:14;;;;;;;;;;;;;;;18.24;47.68;101170.88;5153797;27;19927;-56
2022/12/26 15:12:59;;;;;;;;;;;;;;;18.24;47.82;101179.13;5135121;27;19963;-56
2022/12/26 15:15:35;;;;;;;;;;;;;;;18.25;47.76;101179.97;5138164;27;19927;-56